Ranfurly, Alberta

Past 24 Hour Conditions

This table is a summary of hourly weather conditions for the past 24 hours. This summary includes the following parameters: temperature, humidity, dew point, wind speed and direction, air pressure, visibility and/or wind chill and humidex.
Date / Time
(MDT)
Conditions Temp (°F) Humidity (%) Dew Point (°F) Wind (mph) Pressure (inches) Visibility (miles)
30 August 2014
10:00 N/A 58 76 50 WNW 7 29.7 N/A
9:00 N/A 55 89 52 W 6 29.7 N/A
8:00 N/A 52   95 50 WNW 5 29.7 N/A
7:00 N/A 52   97 51 WNW 7 29.6 N/A
6:00 N/A 52   95 51 WNW 8 29.6 N/A
5:00 N/A 53 94 51 NW 9 29.6 N/A
4:00 N/A 53 92 51 NW 12 29.6 N/A
3:00 N/A 55 95 54 WNW 12 gust 18 29.6 N/A
2:00 N/A 54 89 51 SSE 3 29.6 N/A
1:00 N/A 55 85 50 SSE 5 29.6 N/A
00:00 N/A 54 85 50 ESE 3 29.6 N/A
29 August 2014
23:00 N/A 54 85 49 ESE 3 29.7 N/A
22:00 N/A 57 78 50 SE 3 29.7 N/A
21:00 N/A 58 72 49 SE 5 29.7 N/A
20:00 N/A 62 62 49 SE 5 29.7 N/A
19:00 N/A 65 54 48 SSE 8 29.8 N/A
18:00 N/A 68   46 46 SSE 11 gust 20 29.8 N/A
17:00 N/A 66 45 45 SSE 15 29.8 N/A
16:00 N/A 66 46 45 SSE 12 gust 21 29.8 N/A
15:00 N/A 68   41 43 SSE 12 gust 20 29.8 N/A
14:00 N/A 67 43 44 S 12 gust 19 29.9 N/A
13:00 N/A 67 38 41 S 14 gust 24 29.9 N/A
12:00 N/A 66 45 44 S 13 gust 21 29.9 N/A
11:00 N/A 64 51 46 SSE 10 gust 19 29.9 N/A
10:00 N/A 60 65 48 S 7 30.0 N/A
N/A
Not available
 ↑ 
Highest temperature
 ↓ 
Lowest temperature

If you require additional historical weather information, please visit Climate Data Online.